sensor_id;sensor_type;location;lat;lon;timestamp;P1;durP1;ratioP1;P2;durP2;ratioP2
70997;SDS011;58663;52.040;4.634;2022-11-20T00:01:45;17.00;;;9.18;;
70997;SDS011;58663;52.040;4.634;2022-11-20T00:04:11;20.38;;;10.05;;
70997;SDS011;58663;52.040;4.634;2022-11-20T00:06:37;20.05;;;10.55;;
70997;SDS011;58663;52.040;4.634;2022-11-20T00:09:02;24.48;;;11.38;;
70997;SDS011;58663;52.040;4.634;2022-11-20T00:11:28;21.67;;;9.70;;
70997;SDS011;58663;52.040;4.634;2022-11-20T00:13:55;24.60;;;9.68;;
70997;SDS011;58663;52.040;4.634;2022-11-20T00:16:24;25.13;;;11.15;;
70997;SDS011;58663;52.040;4.634;2022-11-20T00:18:50;20.83;;;10.02;;
70997;SDS011;58663;52.040;4.634;2022-11-20T00:21:23;16.75;;;9.80;;
70997;SDS011;58663;52.040;4.634;2022-11-20T00:23:50;19.30;;;10.60;;
70997;SDS011;58663;52.040;4.634;2022-11-20T00:26:17;16.52;;;8.98;;
70997;SDS011;58663;52.040;4.634;2022-11-20T00:28:48;20.13;;;9.63;;
70997;SDS011;58663;52.040;4.634;2022-11-20T00:31:15;16.90;;;9.45;;
70997;SDS011;58663;52.040;4.634;2022-11-20T00:33:41;18.75;;;9.10;;
70997;SDS011;58663;52.040;4.634;2022-11-20T00:36:14;16.42;;;9.10;;
70997;SDS011;58663;52.040;4.634;2022-11-20T00:38:44;17.17;;;8.70;;
70997;SDS011;58663;52.040;4.634;2022-11-20T00:41:11;20.60;;;9.95;;
70997;SDS011;58663;52.040;4.634;2022-11-20T00:43:37;20.13;;;9.63;;
70997;SDS011;58663;52.040;4.634;2022-11-20T00:46:04;18.65;;;10.00;;
70997;SDS011;58663;52.040;4.634;2022-11-20T00:48:40;19.00;;;10.00;;
70997;SDS011;58663;52.040;4.634;2022-11-20T00:51:05;21.42;;;10.82;;
70997;SDS011;58663;52.040;4.634;2022-11-20T00:53:31;21.80;;;9.10;;
70997;SDS011;58663;52.040;4.634;2022-11-20T00:55:57;17.63;;;9.40;;
70997;SDS011;58663;52.040;4.634;2022-11-20T00:58:24;17.70;;;9.20;;
70997;SDS011;58663;52.040;4.634;2022-11-20T01:00:53;19.67;;;10.20;;
70997;SDS011;58663;52.040;4.634;2022-11-20T01:03:18;20.67;;;10.90;;
70997;SDS011;58663;52.040;4.634;2022-11-20T01:05:44;22.92;;;10.93;;
70997;SDS011;58663;52.040;4.634;2022-11-20T01:08:09;16.65;;;9.85;;
70997;SDS011;58663;52.040;4.634;2022-11-20T01:10:35;25.70;;;10.18;;
70997;SDS011;58663;52.040;4.634;2022-11-20T01:13:01;16.88;;;9.65;;
70997;SDS011;58663;52.040;4.634;2022-11-20T01:15:45;20.10;;;10.93;;
70997;SDS011;58663;52.040;4.634;2022-11-20T01:18:10;17.27;;;8.63;;
70997;SDS011;58663;52.040;4.634;2022-11-20T01:20:36;18.65;;;8.63;;
70997;SDS011;58663;52.040;4.634;2022-11-20T01:23:02;19.80;;;9.88;;
70997;SDS011;58663;52.040;4.634;2022-11-20T01:25:28;24.40;;;10.50;;
70997;SDS011;58663;52.040;4.634;2022-11-20T01:27:54;18.58;;;9.45;;
70997;SDS011;58663;52.040;4.634;2022-11-20T01:30:19;18.35;;;9.73;;
70997;SDS011;58663;52.040;4.634;2022-11-20T01:32:44;21.15;;;10.20;;
70997;SDS011;58663;52.040;4.634;2022-11-20T01:35:10;17.73;;;8.95;;
70997;SDS011;58663;52.040;4.634;2022-11-20T01:37:35;22.42;;;10.15;;
70997;SDS011;58663;52.040;4.634;2022-11-20T01:40:01;18.67;;;10.15;;
70997;SDS011;58663;52.040;4.634;2022-11-20T01:42:26;19.25;;;9.60;;
70997;SDS011;58663;52.040;4.634;2022-11-20T01:48:10;17.92;;;8.98;;
70997;SDS011;58663;52.040;4.634;2022-11-20T01:50:36;22.73;;;10.88;;
70997;SDS011;58663;52.040;4.634;2022-11-20T01:53:02;19.98;;;9.32;;
70997;SDS011;58663;52.040;4.634;2022-11-20T01:55:34;19.52;;;10.52;;
70997;SDS011;58663;52.040;4.634;2022-11-20T01:58:02;17.80;;;10.35;;
70997;SDS011;58663;52.040;4.634;2022-11-20T02:00:28;22.77;;;10.50;;
70997;SDS011;58663;52.040;4.634;2022-11-20T02:02:55;19.73;;;9.05;;
70997;SDS011;58663;52.040;4.634;2022-11-20T02:08:12;22.42;;;10.93;;
70997;SDS011;58663;52.040;4.634;2022-11-20T02:10:38;19.42;;;10.20;;
70997;SDS011;58663;52.040;4.634;2022-11-20T02:13:03;15.45;;;9.10;;
70997;SDS011;58663;52.040;4.634;2022-11-20T02:15:48;19.73;;;9.80;;
70997;SDS011;58663;52.040;4.634;2022-11-20T02:18:14;18.08;;;9.85;;
70997;SDS011;58663;52.040;4.634;2022-11-20T02:20:45;18.15;;;9.50;;
70997;SDS011;58663;52.040;4.634;2022-11-20T02:23:16;16.40;;;9.18;;
70997;SDS011;58663;52.040;4.634;2022-11-20T02:25:44;18.60;;;9.40;;
70997;SDS011;58663;52.040;4.634;2022-11-20T02:28:10;20.77;;;9.75;;
70997;SDS011;58663;52.040;4.634;2022-11-20T02:30:36;19.48;;;10.70;;
70997;SDS011;58663;52.040;4.634;2022-11-20T02:33:01;20.60;;;10.75;;
70997;SDS011;58663;52.040;4.634;2022-11-20T02:37:53;18.77;;;9.75;;
70997;SDS011;58663;52.040;4.634;2022-11-20T02:40:19;17.25;;;8.52;;
70997;SDS011;58663;52.040;4.634;2022-11-20T02:42:45;19.75;;;10.27;;
70997;SDS011;58663;52.040;4.634;2022-11-20T02:45:11;17.10;;;8.63;;
70997;SDS011;58663;52.040;4.634;2022-11-20T02:47:36;17.83;;;9.50;;
70997;SDS011;58663;52.040;4.634;2022-11-20T02:50:02;18.60;;;9.73;;
70997;SDS011;58663;52.040;4.634;2022-11-20T02:52:29;18.15;;;9.45;;
70997;SDS011;58663;52.040;4.634;2022-11-20T02:54:54;17.88;;;9.32;;
70997;SDS011;58663;52.040;4.634;2022-11-20T02:57:20;17.20;;;8.75;;
70997;SDS011;58663;52.040;4.634;2022-11-20T02:59:45;21.80;;;9.93;;
70997;SDS011;58663;52.040;4.634;2022-11-20T03:02:11;18.67;;;9.95;;
70997;SDS011;58663;52.040;4.634;2022-11-20T03:04:36;19.58;;;8.85;;
70997;SDS011;58663;52.040;4.634;2022-11-20T03:07:01;24.27;;;9.48;;
70997;SDS011;58663;52.040;4.634;2022-11-20T03:09:27;20.20;;;10.80;;
70997;SDS011;58663;52.040;4.634;2022-11-20T03:11:52;16.58;;;9.82;;
70997;SDS011;58663;52.040;4.634;2022-11-20T03:14:17;19.70;;;9.93;;
70997;SDS011;58663;52.040;4.634;2022-11-20T03:16:43;22.67;;;10.40;;
70997;SDS011;58663;52.040;4.634;2022-11-20T03:19:08;22.17;;;10.05;;
70997;SDS011;58663;52.040;4.634;2022-11-20T03:21:34;21.75;;;10.27;;
70997;SDS011;58663;52.040;4.634;2022-11-20T03:23:59;18.00;;;10.13;;
70997;SDS011;58663;52.040;4.634;2022-11-20T03:26:25;24.23;;;11.07;;
70997;SDS011;58663;52.040;4.634;2022-11-20T03:28:52;21.40;;;9.55;;
70997;SDS011;58663;52.040;4.634;2022-11-20T03:31:19;18.83;;;10.80;;
70997;SDS011;58663;52.040;4.634;2022-11-20T03:33:46;17.27;;;9.18;;
70997;SDS011;58663;52.040;4.634;2022-11-20T03:36:12;17.60;;;9.80;;
70997;SDS011;58663;52.040;4.634;2022-11-20T03:38:39;19.90;;;10.15;;
70997;SDS011;58663;52.040;4.634;2022-11-20T03:41:06;21.95;;;10.05;;
70997;SDS011;58663;52.040;4.634;2022-11-20T03:43:33;21.58;;;10.40;;
70997;SDS011;58663;52.040;4.634;2022-11-20T03:45:58;18.25;;;9.93;;
70997;SDS011;58663;52.040;4.634;2022-11-20T03:48:24;19.65;;;9.13;;
70997;SDS011;58663;52.040;4.634;2022-11-20T03:50:50;17.20;;;9.48;;
70997;SDS011;58663;52.040;4.634;2022-11-20T03:53:16;19.65;;;9.73;;
70997;SDS011;58663;52.040;4.634;2022-11-20T03:55:41;19.00;;;10.95;;
70997;SDS011;58663;52.040;4.634;2022-11-20T03:58:07;18.00;;;10.40;;
70997;SDS011;58663;52.040;4.634;2022-11-20T04:00:33;23.45;;;10.30;;
70997;SDS011;58663;52.040;4.634;2022-11-20T04:02:58;20.05;;;10.07;;
70997;SDS011;58663;52.040;4.634;2022-11-20T04:05:25;17.95;;;9.43;;
70997;SDS011;58663;52.040;4.634;2022-11-20T04:07:50;19.30;;;9.45;;
70997;SDS011;58663;52.040;4.634;2022-11-20T04:10:15;19.60;;;9.95;;
70997;SDS011;58663;52.040;4.634;2022-11-20T04:12:41;20.13;;;9.88;;
70997;SDS011;58663;52.040;4.634;2022-11-20T04:15:06;17.45;;;10.00;;
70997;SDS011;58663;52.040;4.634;2022-11-20T04:17:32;16.27;;;8.73;;
70997;SDS011;58663;52.040;4.634;2022-11-20T04:19:57;17.08;;;9.00;;
70997;SDS011;58663;52.040;4.634;2022-11-20T04:22:23;19.85;;;9.75;;
70997;SDS011;58663;52.040;4.634;2022-11-20T04:24:48;20.27;;;9.18;;
70997;SDS011;58663;52.040;4.634;2022-11-20T04:27:13;18.77;;;10.20;;
70997;SDS011;58663;52.040;4.634;2022-11-20T04:29:39;22.05;;;9.77;;
70997;SDS011;58663;52.040;4.634;2022-11-20T04:32:04;15.65;;;8.95;;
70997;SDS011;58663;52.040;4.634;2022-11-20T04:34:29;20.67;;;10.05;;
70997;SDS011;58663;52.040;4.634;2022-11-20T04:36:55;17.92;;;9.05;;
70997;SDS011;58663;52.040;4.634;2022-11-20T04:39:20;19.65;;;11.13;;
70997;SDS011;58663;52.040;4.634;2022-11-20T04:41:45;16.17;;;9.07;;
70997;SDS011;58663;52.040;4.634;2022-11-20T04:44:11;17.85;;;9.90;;
70997;SDS011;58663;52.040;4.634;2022-11-20T04:46:38;18.45;;;9.27;;
70997;SDS011;58663;52.040;4.634;2022-11-20T04:49:04;18.17;;;10.02;;
70997;SDS011;58663;52.040;4.634;2022-11-20T04:51:30;16.50;;;9.00;;
70997;SDS011;58663;52.040;4.634;2022-11-20T04:53:56;17.83;;;9.65;;
70997;SDS011;58663;52.040;4.634;2022-11-20T04:56:21;21.90;;;10.23;;
70997;SDS011;58663;52.040;4.634;2022-11-20T04:58:47;16.80;;;9.35;;
70997;SDS011;58663;52.040;4.634;2022-11-20T05:01:13;19.40;;;10.27;;
70997;SDS011;58663;52.040;4.634;2022-11-20T05:03:41;20.92;;;10.05;;
70997;SDS011;58663;52.040;4.634;2022-11-20T05:06:07;21.23;;;10.15;;
70997;SDS011;58663;52.040;4.634;2022-11-20T05:08:34;19.27;;;10.35;;
70997;SDS011;58663;52.040;4.634;2022-11-20T05:11:00;20.38;;;10.77;;
70997;SDS011;58663;52.040;4.634;2022-11-20T05:13:26;16.77;;;9.45;;
70997;SDS011;58663;52.040;4.634;2022-11-20T05:15:52;18.27;;;9.48;;
70997;SDS011;58663;52.040;4.634;2022-11-20T05:18:17;21.35;;;10.02;;
70997;SDS011;58663;52.040;4.634;2022-11-20T05:20:43;26.60;;;11.40;;
70997;SDS011;58663;52.040;4.634;2022-11-20T05:23:08;23.23;;;10.55;;
70997;SDS011;58663;52.040;4.634;2022-11-20T05:25:33;22.48;;;10.68;;
70997;SDS011;58663;52.040;4.634;2022-11-20T05:27:59;20.83;;;10.25;;
70997;SDS011;58663;52.040;4.634;2022-11-20T05:30:24;21.73;;;10.13;;
70997;SDS011;58663;52.040;4.634;2022-11-20T05:32:49;16.73;;;9.43;;
70997;SDS011;58663;52.040;4.634;2022-11-20T05:35:15;19.70;;;10.57;;
70997;SDS011;58663;52.040;4.634;2022-11-20T05:37:40;21.85;;;10.77;;
70997;SDS011;58663;52.040;4.634;2022-11-20T05:40:06;29.80;;;11.80;;
70997;SDS011;58663;52.040;4.634;2022-11-20T05:42:32;22.58;;;10.80;;
70997;SDS011;58663;52.040;4.634;2022-11-20T05:44:57;18.33;;;10.00;;
70997;SDS011;58663;52.040;4.634;2022-11-20T05:47:23;21.00;;;9.95;;
70997;SDS011;58663;52.040;4.634;2022-11-20T05:49:49;25.58;;;10.40;;
70997;SDS011;58663;52.040;4.634;2022-11-20T05:52:14;23.80;;;11.30;;
70997;SDS011;58663;52.040;4.634;2022-11-20T05:54:40;21.17;;;11.65;;
70997;SDS011;58663;52.040;4.634;2022-11-20T05:57:05;22.50;;;10.55;;
70997;SDS011;58663;52.040;4.634;2022-11-20T05:59:30;25.10;;;10.93;;
70997;SDS011;58663;52.040;4.634;2022-11-20T06:01:56;26.95;;;12.48;;
70997;SDS011;58663;52.040;4.634;2022-11-20T06:04:21;22.52;;;10.88;;
70997;SDS011;58663;52.040;4.634;2022-11-20T06:06:46;26.50;;;11.13;;
70997;SDS011;58663;52.040;4.634;2022-11-20T06:09:12;23.25;;;10.30;;
70997;SDS011;58663;52.040;4.634;2022-11-20T06:11:37;21.20;;;10.55;;
70997;SDS011;58663;52.040;4.634;2022-11-20T06:14:02;22.80;;;10.55;;
70997;SDS011;58663;52.040;4.634;2022-11-20T06:16:28;25.92;;;11.57;;
70997;SDS011;58663;52.040;4.634;2022-11-20T06:18:53;21.85;;;10.90;;
70997;SDS011;58663;52.040;4.634;2022-11-20T06:21:20;20.83;;;10.73;;
70997;SDS011;58663;52.040;4.634;2022-11-20T06:23:46;23.15;;;11.07;;
70997;SDS011;58663;52.040;4.634;2022-11-20T06:26:13;21.38;;;10.98;;
70997;SDS011;58663;52.040;4.634;2022-11-20T06:28:40;22.55;;;11.73;;
70997;SDS011;58663;52.040;4.634;2022-11-20T06:31:06;23.25;;;11.18;;
70997;SDS011;58663;52.040;4.634;2022-11-20T06:33:32;20.85;;;12.10;;
70997;SDS011;58663;52.040;4.634;2022-11-20T06:35:58;21.02;;;11.88;;
70997;SDS011;58663;52.040;4.634;2022-11-20T06:38:25;24.00;;;11.70;;
70997;SDS011;58663;52.040;4.634;2022-11-20T06:40:50;29.55;;;12.70;;
70997;SDS011;58663;52.040;4.634;2022-11-20T06:43:16;22.83;;;11.88;;
70997;SDS011;58663;52.040;4.634;2022-11-20T06:45:41;26.60;;;11.68;;
70997;SDS011;58663;52.040;4.634;2022-11-20T06:48:07;29.08;;;12.65;;
70997;SDS011;58663;52.040;4.634;2022-11-20T06:50:33;23.88;;;12.15;;
70997;SDS011;58663;52.040;4.634;2022-11-20T06:53:01;33.25;;;12.77;;
70997;SDS011;58663;52.040;4.634;2022-11-20T06:55:28;24.80;;;11.85;;
70997;SDS011;58663;52.040;4.634;2022-11-20T06:57:53;28.48;;;12.00;;
70997;SDS011;58663;52.040;4.634;2022-11-20T07:00:18;30.80;;;12.55;;
70997;SDS011;58663;52.040;4.634;2022-11-20T07:02:44;25.58;;;12.38;;
70997;SDS011;58663;52.040;4.634;2022-11-20T07:05:09;22.38;;;11.52;;
70997;SDS011;58663;52.040;4.634;2022-11-20T07:07:35;27.52;;;13.52;;
70997;SDS011;58663;52.040;4.634;2022-11-20T07:10:00;30.88;;;13.05;;
70997;SDS011;58663;52.040;4.634;2022-11-20T07:12:25;28.77;;;13.20;;
70997;SDS011;58663;52.040;4.634;2022-11-20T07:14:51;25.92;;;12.02;;
70997;SDS011;58663;52.040;4.634;2022-11-20T07:17:16;33.97;;;14.60;;
70997;SDS011;58663;52.040;4.634;2022-11-20T07:19:41;29.63;;;13.30;;
70997;SDS011;58663;52.040;4.634;2022-11-20T07:22:08;31.60;;;13.40;;
70997;SDS011;58663;52.040;4.634;2022-11-20T07:24:33;26.23;;;12.48;;
70997;SDS011;58663;52.040;4.634;2022-11-20T07:26:59;27.38;;;13.35;;
70997;SDS011;58663;52.040;4.634;2022-11-20T07:29:25;26.73;;;13.02;;
70997;SDS011;58663;52.040;4.634;2022-11-20T07:31:50;29.20;;;14.15;;
70997;SDS011;58663;52.040;4.634;2022-11-20T07:34:16;28.60;;;14.00;;
70997;SDS011;58663;52.040;4.634;2022-11-20T07:36:41;26.88;;;13.43;;
70997;SDS011;58663;52.040;4.634;2022-11-20T07:39:06;31.00;;;14.93;;
70997;SDS011;58663;52.040;4.634;2022-11-20T07:41:32;32.80;;;14.63;;
70997;SDS011;58663;52.040;4.634;2022-11-20T07:43:57;35.33;;;13.60;;
70997;SDS011;58663;52.040;4.634;2022-11-20T07:46:23;29.83;;;14.77;;
70997;SDS011;58663;52.040;4.634;2022-11-20T07:48:48;25.23;;;13.18;;
70997;SDS011;58663;52.040;4.634;2022-11-20T07:51:13;33.40;;;15.40;;
70997;SDS011;58663;52.040;4.634;2022-11-20T07:53:39;26.77;;;13.90;;
70997;SDS011;58663;52.040;4.634;2022-11-20T07:56:04;27.90;;;13.52;;
70997;SDS011;58663;52.040;4.634;2022-11-20T07:58:30;30.45;;;15.35;;
70997;SDS011;58663;52.040;4.634;2022-11-20T08:00:57;30.60;;;14.95;;
70997;SDS011;58663;52.040;4.634;2022-11-20T08:03:23;33.20;;;14.32;;
70997;SDS011;58663;52.040;4.634;2022-11-20T08:05:48;33.13;;;15.77;;
70997;SDS011;58663;52.040;4.634;2022-11-20T08:08:14;30.95;;;14.95;;
70997;SDS011;58663;52.040;4.634;2022-11-20T08:10:39;36.45;;;16.08;;
70997;SDS011;58663;52.040;4.634;2022-11-20T08:13:05;32.30;;;14.52;;
70997;SDS011;58663;52.040;4.634;2022-11-20T08:15:49;28.90;;;14.85;;
70997;SDS011;58663;52.040;4.634;2022-11-20T08:18:18;33.90;;;15.32;;
70997;SDS011;58663;52.040;4.634;2022-11-20T08:20:43;31.42;;;14.63;;
70997;SDS011;58663;52.040;4.634;2022-11-20T08:23:09;30.27;;;13.93;;
70997;SDS011;58663;52.040;4.634;2022-11-20T08:25:35;31.42;;;14.93;;
70997;SDS011;58663;52.040;4.634;2022-11-20T08:28:05;35.50;;;16.67;;
70997;SDS011;58663;52.040;4.634;2022-11-20T08:30:31;28.23;;;15.00;;
70997;SDS011;58663;52.040;4.634;2022-11-20T08:33:03;28.02;;;13.73;;
70997;SDS011;58663;52.040;4.634;2022-11-20T08:35:36;29.42;;;14.80;;
70997;SDS011;58663;52.040;4.634;2022-11-20T08:38:03;28.50;;;15.52;;
70997;SDS011;58663;52.040;4.634;2022-11-20T08:40:29;33.33;;;16.83;;
70997;SDS011;58663;52.040;4.634;2022-11-20T08:42:54;32.55;;;15.15;;
70997;SDS011;58663;52.040;4.634;2022-11-20T08:45:19;32.67;;;14.73;;
70997;SDS011;58663;52.040;4.634;2022-11-20T08:47:45;29.10;;;15.15;;
70997;SDS011;58663;52.040;4.634;2022-11-20T08:50:12;30.95;;;15.80;;
70997;SDS011;58663;52.040;4.634;2022-11-20T08:52:38;28.75;;;16.23;;
70997;SDS011;58663;52.040;4.634;2022-11-20T08:55:04;30.25;;;15.60;;
70997;SDS011;58663;52.040;4.634;2022-11-20T08:57:34;27.95;;;14.13;;
70997;SDS011;58663;52.040;4.634;2022-11-20T09:00:00;31.50;;;15.93;;
70997;SDS011;58663;52.040;4.634;2022-11-20T09:02:25;30.00;;;15.10;;
70997;SDS011;58663;52.040;4.634;2022-11-20T09:04:51;26.55;;;14.88;;
70997;SDS011;58663;52.040;4.634;2022-11-20T09:07:16;26.30;;;14.52;;
70997;SDS011;58663;52.040;4.634;2022-11-20T09:09:42;26.27;;;14.45;;
70997;SDS011;58663;52.040;4.634;2022-11-20T09:12:07;27.60;;;15.25;;
70997;SDS011;58663;52.040;4.634;2022-11-20T09:14:32;26.98;;;14.93;;
70997;SDS011;58663;52.040;4.634;2022-11-20T09:16:58;27.92;;;14.38;;
70997;SDS011;58663;52.040;4.634;2022-11-20T09:19:24;28.30;;;14.60;;
70997;SDS011;58663;52.040;4.634;2022-11-20T09:21:50;30.52;;;15.90;;
70997;SDS011;58663;52.040;4.634;2022-11-20T09:24:15;26.52;;;14.07;;
70997;SDS011;58663;52.040;4.634;2022-11-20T09:26:41;25.17;;;13.27;;
70997;SDS011;58663;52.040;4.634;2022-11-20T09:29:06;25.55;;;13.73;;
70997;SDS011;58663;52.040;4.634;2022-11-20T09:31:32;31.42;;;14.43;;
70997;SDS011;58663;52.040;4.634;2022-11-20T09:33:57;27.63;;;13.95;;
70997;SDS011;58663;52.040;4.634;2022-11-20T09:36:22;27.58;;;14.18;;
70997;SDS011;58663;52.040;4.634;2022-11-20T09:38:48;25.83;;;13.90;;
70997;SDS011;58663;52.040;4.634;2022-11-20T09:53:23;31.00;;;13.98;;
70997;SDS011;58663;52.040;4.634;2022-11-20T09:55:50;27.50;;;13.93;;
70997;SDS011;58663;52.040;4.634;2022-11-20T09:58:19;28.85;;;15.73;;
70997;SDS011;58663;52.040;4.634;2022-11-20T10:00:47;26.23;;;14.52;;
70997;SDS011;58663;52.040;4.634;2022-11-20T10:03:14;28.27;;;13.48;;
70997;SDS011;58663;52.040;4.634;2022-11-20T10:05:53;26.05;;;15.88;;
70997;SDS011;58663;52.040;4.634;2022-11-20T10:08:23;24.52;;;13.40;;
70997;SDS011;58663;52.040;4.634;2022-11-20T10:27:06;28.20;;;14.48;;
70997;SDS011;58663;52.040;4.634;2022-11-20T10:29:41;27.83;;;14.52;;
70997;SDS011;58663;52.040;4.634;2022-11-20T10:32:09;31.30;;;15.75;;
70997;SDS011;58663;52.040;4.634;2022-11-20T10:35:00;32.42;;;16.83;;
70997;SDS011;58663;52.040;4.634;2022-11-20T10:37:26;31.33;;;15.48;;
70997;SDS011;58663;52.040;4.634;2022-11-20T10:42:31;31.13;;;16.15;;
70997;SDS011;58663;52.040;4.634;2022-11-20T10:45:02;28.77;;;16.27;;
70997;SDS011;58663;52.040;4.634;2022-11-20T10:47:38;29.55;;;16.30;;
70997;SDS011;58663;52.040;4.634;2022-11-20T10:50:04;36.03;;;14.95;;
70997;SDS011;58663;52.040;4.634;2022-11-20T10:58:20;32.78;;;17.45;;
70997;SDS011;58663;52.040;4.634;2022-11-20T11:03:43;37.22;;;17.33;;
70997;SDS011;58663;52.040;4.634;2022-11-20T11:08:35;34.10;;;15.95;;
70997;SDS011;58663;52.040;4.634;2022-11-20T11:13:38;31.02;;;15.75;;
70997;SDS011;58663;52.040;4.634;2022-11-20T11:16:03;32.13;;;16.83;;
70997;SDS011;58663;52.040;4.634;2022-11-20T11:18:30;36.03;;;16.83;;
70997;SDS011;58663;52.040;4.634;2022-11-20T11:20:57;38.58;;;18.00;;
70997;SDS011;58663;52.040;4.634;2022-11-20T11:23:28;39.50;;;17.48;;
70997;SDS011;58663;52.040;4.634;2022-11-20T11:25:58;30.02;;;17.05;;
70997;SDS011;58663;52.040;4.634;2022-11-20T11:28:24;39.13;;;16.98;;
70997;SDS011;58663;52.040;4.634;2022-11-20T11:30:52;39.03;;;16.17;;
70997;SDS011;58663;52.040;4.634;2022-11-20T11:33:22;37.33;;;16.80;;
70997;SDS011;58663;52.040;4.634;2022-11-20T11:35:49;32.42;;;17.15;;
70997;SDS011;58663;52.040;4.634;2022-11-20T11:38:43;31.33;;;15.23;;
70997;SDS011;58663;52.040;4.634;2022-11-20T11:41:19;34.08;;;16.75;;
70997;SDS011;58663;52.040;4.634;2022-11-20T11:43:52;28.25;;;16.25;;
70997;SDS011;58663;52.040;4.634;2022-11-20T11:46:38;33.50;;;15.77;;
70997;SDS011;58663;52.040;4.634;2022-11-20T11:51:31;31.70;;;17.30;;
70997;SDS011;58663;52.040;4.634;2022-11-20T11:54:14;36.08;;;18.27;;
70997;SDS011;58663;52.040;4.634;2022-11-20T11:56:42;30.55;;;16.90;;
70997;SDS011;58663;52.040;4.634;2022-11-20T11:59:09;36.60;;;17.27;;
70997;SDS011;58663;52.040;4.634;2022-11-20T12:06:58;35.67;;;19.10;;
70997;SDS011;58663;52.040;4.634;2022-11-20T12:09:29;37.45;;;17.50;;
70997;SDS011;58663;52.040;4.634;2022-11-20T12:12:17;40.83;;;19.45;;
70997;SDS011;58663;52.040;4.634;2022-11-20T12:14:46;38.38;;;17.70;;
70997;SDS011;58663;52.040;4.634;2022-11-20T12:17:12;39.45;;;18.33;;
70997;SDS011;58663;52.040;4.634;2022-11-20T12:19:38;40.22;;;17.58;;
70997;SDS011;58663;52.040;4.634;2022-11-20T12:54:05;43.28;;;19.77;;
70997;SDS011;58663;52.040;4.634;2022-11-20T13:08:23;44.60;;;20.38;;
70997;SDS011;58663;52.040;4.634;2022-11-20T13:19:13;51.53;;;21.90;;
70997;SDS011;58663;52.040;4.634;2022-11-20T13:21:41;41.10;;;21.60;;
70997;SDS011;58663;52.040;4.634;2022-11-20T13:29:33;48.75;;;21.63;;
70997;SDS011;58663;52.040;4.634;2022-11-20T13:32:06;55.88;;;23.30;;
70997;SDS011;58663;52.040;4.634;2022-11-20T13:34:38;59.95;;;23.10;;
70997;SDS011;58663;52.040;4.634;2022-11-20T13:37:03;49.53;;;22.48;;
70997;SDS011;58663;52.040;4.634;2022-11-20T13:39:37;60.33;;;23.85;;
70997;SDS011;58663;52.040;4.634;2022-11-20T13:44:42;58.63;;;24.30;;
70997;SDS011;58663;52.040;4.634;2022-11-20T13:47:22;51.30;;;22.83;;
70997;SDS011;58663;52.040;4.634;2022-11-20T13:49:51;54.95;;;24.92;;
70997;SDS011;58663;52.040;4.634;2022-11-20T14:00:24;48.78;;;23.83;;
70997;SDS011;58663;52.040;4.634;2022-11-20T14:07:57;69.72;;;25.98;;
70997;SDS011;58663;52.040;4.634;2022-11-20T14:10:26;67.25;;;25.02;;
70997;SDS011;58663;52.040;4.634;2022-11-20T14:12:53;61.00;;;24.92;;
70997;SDS011;58663;52.040;4.634;2022-11-20T14:15:34;64.65;;;28.13;;
70997;SDS011;58663;52.040;4.634;2022-11-20T14:18:10;72.50;;;26.63;;
70997;SDS011;58663;52.040;4.634;2022-11-20T14:20:38;70.15;;;27.13;;
70997;SDS011;58663;52.040;4.634;2022-11-20T14:23:03;62.00;;;25.40;;
70997;SDS011;58663;52.040;4.634;2022-11-20T14:25:30;70.00;;;27.65;;
70997;SDS011;58663;52.040;4.634;2022-11-20T14:27:59;74.88;;;27.17;;
70997;SDS011;58663;52.040;4.634;2022-11-20T14:30:36;60.70;;;23.23;;
70997;SDS011;58663;52.040;4.634;2022-11-20T14:33:03;66.00;;;24.90;;
70997;SDS011;58663;52.040;4.634;2022-11-20T14:35:30;67.15;;;25.25;;
70997;SDS011;58663;52.040;4.634;2022-11-20T14:37:59;72.43;;;25.90;;
70997;SDS011;58663;52.040;4.634;2022-11-20T14:40:33;72.18;;;26.27;;
70997;SDS011;58663;52.040;4.634;2022-11-20T14:46:03;70.35;;;25.55;;
70997;SDS011;58663;52.040;4.634;2022-11-20T14:48:32;72.00;;;25.10;;
70997;SDS011;58663;52.040;4.634;2022-11-20T14:51:03;69.03;;;25.88;;
70997;SDS011;58663;52.040;4.634;2022-11-20T14:53:29;72.18;;;27.77;;
70997;SDS011;58663;52.040;4.634;2022-11-20T14:55:55;68.90;;;25.58;;
70997;SDS011;58663;52.040;4.634;2022-11-20T14:58:23;79.15;;;27.58;;
70997;SDS011;58663;52.040;4.634;2022-11-20T15:00:57;74.25;;;27.98;;
70997;SDS011;58663;52.040;4.634;2022-11-20T15:05:59;83.97;;;31.33;;
70997;SDS011;58663;52.040;4.634;2022-11-20T15:08:24;71.72;;;27.75;;
70997;SDS011;58663;52.040;4.634;2022-11-20T15:10:50;73.22;;;28.08;;
70997;SDS011;58663;52.040;4.634;2022-11-20T15:13:32;75.68;;;28.60;;
70997;SDS011;58663;52.040;4.634;2022-11-20T15:16:00;72.80;;;28.38;;
70997;SDS011;58663;52.040;4.634;2022-11-20T15:18:30;74.25;;;30.10;;
70997;SDS011;58663;52.040;4.634;2022-11-20T15:20:57;69.38;;;27.35;;
70997;SDS011;58663;52.040;4.634;2022-11-20T15:23:25;77.57;;;27.30;;
70997;SDS011;58663;52.040;4.634;2022-11-20T15:25:51;73.38;;;29.02;;
70997;SDS011;58663;52.040;4.634;2022-11-20T15:28:27;79.00;;;27.88;;
70997;SDS011;58663;52.040;4.634;2022-11-20T15:30:55;77.82;;;29.02;;
70997;SDS011;58663;52.040;4.634;2022-11-20T15:33:21;69.85;;;26.13;;
70997;SDS011;58663;52.040;4.634;2022-11-20T15:35:47;76.38;;;31.27;;
70997;SDS011;58663;52.040;4.634;2022-11-20T15:38:12;68.05;;;29.35;;
70997;SDS011;58663;52.040;4.634;2022-11-20T15:40:38;70.47;;;27.95;;
70997;SDS011;58663;52.040;4.634;2022-11-20T15:43:03;78.43;;;28.15;;
70997;SDS011;58663;52.040;4.634;2022-11-20T15:45:38;70.80;;;27.60;;
70997;SDS011;58663;52.040;4.634;2022-11-20T15:48:04;66.28;;;26.65;;
70997;SDS011;58663;52.040;4.634;2022-11-20T15:50:43;76.53;;;29.02;;
70997;SDS011;58663;52.040;4.634;2022-11-20T15:53:15;71.85;;;29.25;;
70997;SDS011;58663;52.040;4.634;2022-11-20T15:55:41;61.58;;;27.77;;
70997;SDS011;58663;52.040;4.634;2022-11-20T15:58:06;74.65;;;32.75;;
70997;SDS011;58663;52.040;4.634;2022-11-20T16:00:31;68.40;;;28.65;;
70997;SDS011;58663;52.040;4.634;2022-11-20T16:02:57;86.78;;;30.75;;
70997;SDS011;58663;52.040;4.634;2022-11-20T16:05:22;73.63;;;28.27;;
70997;SDS011;58663;52.040;4.634;2022-11-20T16:07:50;69.88;;;28.10;;
70997;SDS011;58663;52.040;4.634;2022-11-20T16:10:16;75.88;;;29.05;;
70997;SDS011;58663;52.040;4.634;2022-11-20T16:12:42;75.70;;;29.35;;
70997;SDS011;58663;52.040;4.634;2022-11-20T16:15:26;78.22;;;31.58;;
70997;SDS011;58663;52.040;4.634;2022-11-20T16:18:10;74.85;;;27.65;;
70997;SDS011;58663;52.040;4.634;2022-11-20T16:20:36;70.20;;;27.42;;
70997;SDS011;58663;52.040;4.634;2022-11-20T16:23:02;75.55;;;30.25;;
70997;SDS011;58663;52.040;4.634;2022-11-20T16:25:27;81.18;;;29.67;;
70997;SDS011;58663;52.040;4.634;2022-11-20T16:27:52;87.28;;;33.22;;
70997;SDS011;58663;52.040;4.634;2022-11-20T16:30:18;71.38;;;26.85;;
70997;SDS011;58663;52.040;4.634;2022-11-20T16:32:43;72.07;;;29.48;;
70997;SDS011;58663;52.040;4.634;2022-11-20T16:35:09;78.05;;;28.95;;
70997;SDS011;58663;52.040;4.634;2022-11-20T16:37:34;84.97;;;36.72;;
70997;SDS011;58663;52.040;4.634;2022-11-20T16:40:00;70.05;;;29.98;;
70997;SDS011;58663;52.040;4.634;2022-11-20T16:42:25;76.93;;;34.72;;
70997;SDS011;58663;52.040;4.634;2022-11-20T16:44:50;87.63;;;37.67;;